This is the latest recevied weather packets stored in our database for station/object WA2TQI. If no packets are shown the sender has not sent any weather packets the latest 1 day(s).
| Time | Temp. | Humidity | Pressure | Rain* | Wind** | Luminosity | Snow |
|---|---|---|---|---|---|---|---|
| 1778023235 | 25.56° C | 50% | 1010.4 hPa | 0 mm | 1.79 m/s, 109° | - | - |
| 1778022931 | 25.56° C | 50% | 1010.3 hPa | 0 mm | 0.45 m/s, 121° | - | - |
| 1778022630 | 25.56° C | 49% | 1010.5 hPa | 0 mm | 0.89 m/s, 210° | - | - |
| 1778022327 | 25.56° C | 50% | 1010.4 hPa | 0 mm | 1.79 m/s, 154° | - | - |
| 1778022024 | 26.11° C | 49% | 1010.3 hPa | 0 mm | 0.45 m/s, 52° | - | - |
| 1778021720 | 26.11° C | 49% | 1010.3 hPa | 0 mm | 1.79 m/s, 194° | - | - |
| 1778021416 | 26.11° C | 49% | 1010.4 hPa | 0 mm | 3.13 m/s, 189° | - | - |
| 1778021114 | 26.11° C | 49% | 1010.4 hPa | 0 mm | 1.79 m/s, 149° | - | - |
| 1778020811 | 26.11° C | 49% | 1010.4 hPa | 0 mm | 2.24 m/s, 201° | - | - |
| 1778020508 | 26.67° C | 48% | 1010.2 hPa | 0 mm | 1.34 m/s, 117° | - | - |
| 1778020216 | 26.67° C | 48% | 1010.2 hPa | 0 mm | 1.79 m/s, 319° | - | - |
| 1778019900 | 26.67° C | 48% | 1010.4 hPa | 0 mm | 3.58 m/s, 184° | - | - |
| 1778019596 | 26.67° C | 48% | 1010.3 hPa | 0 mm | 2.68 m/s, 88° | - | - |
| 1778019293 | 26.67° C | 48% | 1010.2 hPa | 0 mm | 0.89 m/s, 150° | - | - |
| 1778018990 | 26.67° C | 47% | 1010.4 hPa | 0 mm | 4.92 m/s, 224° | - | - |
| 1778018687 | 27.22° C | 48% | 1010 hPa | 0 mm | 3.13 m/s, 189° | - | - |
| 1778018385 | 27.22° C | 47% | 1010.1 hPa | 0 mm | 2.68 m/s, 164° | - | - |
| 1778018083 | 27.78° C | 46% | 1010.2 hPa | 0 mm | 3.13 m/s, 237° | - | - |
| 1778017781 | 27.78° C | 46% | 1010 hPa | 0 mm | 1.34 m/s, 182° | - | - |
| 1778017478 | 27.78° C | 45% | 1010.3 hPa | 0 mm | 3.58 m/s, 216° | - | - |
| 1778017175 | 27.78° C | 45% | 1009.9 hPa | 0 mm | 2.68 m/s, 177° | - | - |
| 1778016873 | 27.78° C | 44% | 1010 hPa | 0 mm | 4.47 m/s, 188° | - | - |
| 1778016569 | 27.78° C | 44% | 1010 hPa | 0 mm | 2.68 m/s, 155° | - | - |
| 1778016266 | 27.78° C | 43% | 1010 hPa | 0 mm | 2.68 m/s, 211° | - | - |
| 1778015962 | 28.33° C | 42% | 1009.8 hPa | 0 mm | 4.92 m/s, 124° | - | - |
* Rain latest hour (hover to see other rain measurements)
** Current wind speed in m/s (hover to see current wind gust speed)